Date,TemperatureHighF,TemperatureAvgF,TemperatureLowF,DewpointHighF,DewpointAvgF,DewpointLowF,HumidityHigh,HumidityAvg,HumidityLow,PressureMaxIn,PressureMinIn,WindSpeedMaxMPH,WindSpeedAvgMPH,GustSpeedMaxMPH,PrecipitationSumIn
2013-1-1,47,44,40,42,37,28,95,78,50,30.06,29.90,6,0,6,0.17
2013-1-2,43,39,37,38,35,26,96,85,67,30.23,29.98,4,0,4,0.09
2013-1-3,40,34,28,28,24,18,94,66,47,30.27,30.18,4,0,4,0.00
2013-1-4,46,36,25,28,25,22,95,69,42,30.26,30.15,8,0,8,0.00
2013-1-5,50,39,28,30,25,21,87,60,34,30.40,30.23,5,0,5,0.00
2013-1-6,53,43,36,38,34,29,91,73,45,30.23,30.04,10,0,10,0.02
2013-1-7,50,40,32,35,31,28,89,73,47,30.45,30.16,8,0,8,0.00
2013-1-8,50,39,28,38,33,26,95,79,60,30.49,30.38,5,0,5,0.00
2013-1-9,66,50,37,54,44,35,96,82,62,30.41,30.27,9,0,9,0.00
2013-1-10,59,47,38,46,37,32,98,73,37,30.58,30.38,5,0,5,0.00
2013-1-11,47,43,36,47,40,32,99,91,78,30.50,30.12,8,0,8,0.07
2013-1-12,55,51,47,53,50,47,100,99,94,30.18,30.10,3,0,3,0.01
2013-1-13,70,60,52,64,58,52,100,95,79,30.14,30.01,6,0,6,0.00
2013-1-14,63,57,44,62,56,43,99,95,91,30.26,30.03,8,0,8,1.19
2013-1-15,44,42,41,43,41,40,99,98,95,30.31,30.11,5,0,5,0.97
2013-1-16,46,42,38,45,41,37,99,98,96,30.12,29.92,4,0,4,0.34
2013-1-17,47,42,33,47,41,33,100,99,92,30.12,29.99,5,0,5,0.92
2013-1-18,40,34,30,34,31,25,99,88,57,30.54,30.10,5,0,5,0.36
2013-1-19,53,40,30,33,29,25,87,67,42,30.49,30.09,10,0,10,0.03
2013-1-20,59,47,37,37,32,30,86,58,36,30.09,29.91,15,1,15,0.00
2013-1-21,55,41,28,35,27,10,92,62,29,30.10,29.80,11,0,11,0.00
2013-1-22,40,30,23,13,5,-1,46,35,25,30.30,29.93,11,1,11,0.00
2013-1-23,34,26,16,15,6,0,74,43,25,30.38,30.10,11,0,11,0.00
2013-1-24,31,26,18,24,14,3,89,63,32,30.56,30.02,13,0,13,0.00
2013-1-25,27,21,16,22,15,5,91,77,40,30.55,30.11,6,0,6,0.00
2013-1-26,35,24,18,27,21,16,95,90,72,30.45,30.09,3,0,5,0.09
2013-1-27,39,32,24,28,25,21,94,76,54,30.63,30.44,6,0,6,0.00
2013-1-28,56,42,32,45,36,25,96,80,61,30.52,30.13,11,1,11,0.27
2013-1-29,74,57,43,57,49,42,96,76,49,30.16,30.02,8,0,8,0.00
2013-1-30,72,67,60,63,61,55,90,80,71,30.02,29.30,12,2,18,0.07
2013-1-31,66,47,33,64,32,17,94,57,34,29.97,29.24,22,2,22,0.38
2013-2-1,40,33,24,28,14,3,72,46,28,30.41,29.81,16,2,16,0.00
2013-2-2,39,29,19,26,16,9,81,60,33,30.41,30.02,10,0,12,0.00
2013-2-3,45,37,31,33,26,18,89,65,43,30.02,29.84,15,0,15,0.00
2013-2-4,42,35,25,26,21,17,84,57,40,30.15,29.95,8,0,8,0.00
2013-2-5,58,47,39,38,33,26,73,57,44,29.95,29.84,12,0,12,0.00
2013-2-6,57,45,35,37,33,29,94,66,36,30.34,29.93,7,0,7,0.00
2013-2-7,48,40,32,38,31,27,94,73,56,30.43,30.14,2,0,6,0.16
2013-2-8,51,43,38,43,38,26,96,84,57,30.14,29.76,9,1,9,0.63
2013-2-9,50,39,30,27,22,15,74,52,26,30.40,29.96,11,0,11,0.00
2013-2-10,50,37,24,30,24,19,95,61,32,30.52,30.26,7,0,7,0.00
2013-2-11,62,52,40,57,49,29,99,90,56,30.26,29.83,14,1,14,0.06
2013-2-12,60,52,40,49,33,26,81,51,28,30.03,29.84,9,0,9,0.00
2013-2-13,49,45,39,43,38,32,95,79,55,29.94,29.64,8,0,8,0.08
2013-2-14,51,41,32,39,34,31,99,81,49,30.07,29.81,6,0,6,0.00
2013-2-15,62,47,33,40,33,26,95,64,28,30.08,29.91,10,0,10,0.00
2013-2-16,44,37,31,37,34,24,95,89,73,30.02,29.85,6,0,6,0.14
2013-2-17,35,29,24,26,14,5,84,55,31,30.27,29.88,19,1,19,0.00
2013-2-18,50,35,21,22,15,8,72,47,23,30.43,30.24,8,0,8,0.00
2013-2-19,49,42,35,47,35,20,95,79,48,30.24,29.80,9,1,12,0.09
2013-2-20,48,38,31,36,21,15,93,52,28,30.16,29.90,11,1,11,0.00
2013-2-21,47,35,25,22,19,17,75,53,32,30.33,30.15,8,0,9,0.00
2013-2-22,42,37,33,35,26,18,92,65,51,30.39,30.21,5,0,5,0.01
2013-2-23,43,40,36,42,38,35,98,96,92,30.21,29.83,5,0,5,0.11
2013-2-24,57,46,36,45,39,25,99,79,50,30.12,29.82,9,0,9,0.02
2013-2-25,45,34,29,26,25,22,84,69,41,30.25,30.12,5,0,5,0.00
2013-2-26,52,41,30,51,39,26,98,91,80,30.24,29.57,9,0,9,0.46
2013-2-27,58,49,39,50,41,35,99,79,44,29.73,29.56,10,1,11,0.00
2013-2-28,49,44,38,40,32,26,92,64,42,29.80,29.65,15,1,16,0.00
2013-3-1,46,40,35,33,29,24,80,63,50,29.92,29.79,7,0,7,0.00
2013-3-2,41,38,35,27,25,23,66,60,54,29.93,29.85,6,0,6,0.00
2013-3-3,47,37,28,25,22,18,80,55,36,29.96,29.81,10,0,10,0.00
2013-3-4,50,36,27,24,18,13,70,48,25,30.08,29.96,11,1,11,0.00
2013-3-5,50,39,29,39,28,20,95,69,36,30.11,29.69,9,0,9,0.37
2013-3-6,39,36,33,38,34,32,97,95,84,30.00,29.44,14,1,14,1.13
2013-3-7,50,42,31,33,29,27,93,63,45,30.20,30.00,12,1,13,0.13
2013-3-8,51,41,30,32,28,25,87,64,42,30.28,30.15,12,1,12,0.01
2013-3-9,62,45,32,33,28,22,84,57,24,30.36,30.26,7,0,7,0.00
2013-3-10,66,48,30,40,29,22,94,57,20,30.36,30.23,6,0,6,0.00
2013-3-11,68,54,39,53,46,38,97,76,53,30.27,29.96,10,0,10,0.00
2013-3-12,70,60,48,62,54,36,97,80,50,29.98,29.73,9,1,9,0.34
2013-3-13,54,44,34,36,30,18,95,60,36,30.12,29.94,16,1,16,0.00
2013-3-14,52,40,31,26,20,16,66,45,25,30.21,30.06,14,1,14,0.00
2013-3-15,59,45,29,37,28,21,82,54,31,30.16,29.85,12,1,12,0.00
2013-3-16,73,55,45,56,47,36,99,75,46,29.88,29.58,9,0,10,0.28
2013-3-17,52,41,36,50,39,34,97,92,87,30.29,29.88,4,0,4,0.12
2013-3-18,39,36,35,38,36,34,98,97,95,30.29,29.90,6,0,6,0.42
2013-3-19,66,48,36,45,32,9,99,64,18,30.01,29.77,15,2,16,0.00
2013-3-20,56,46,32,27,18,9,74,34,19,30.08,29.80,13,1,13,0.00
2013-3-21,47,38,30,30,20,10,87,50,29,29.97,29.73,12,1,12,0.00
2013-3-22,51,37,26,29,18,11,76,46,28,30.06,29.93,11,1,11,0.00
2013-3-23,58,42,28,31,26,20,89,58,25,30.09,29.93,8,0,8,0.00
2013-3-24,42,36,33,34,30,26,96,79,59,30.00,29.64,7,0,7,0.10
2013-3-25,41,35,33,36,34,32,98,93,77,29.75,29.56,9,0,9,0.41
2013-3-26,50,40,30,38,30,26,95,70,42,30.06,29.75,10,1,10,0.11
2013-3-27,52,38,30,31,28,23,90,71,34,30.19,30.06,10,1,13,0.00
2013-3-28,56,44,33,30,27,25,78,54,33,30.28,30.16,13,1,13,0.00
2013-3-29,60,47,36,34,30,26,83,56,30,30.31,30.18,10,0,10,0.00
2013-3-30,65,50,35,38,32,28,93,56,26,30.26,30.11,9,1,9,0.00
2013-3-31,58,50,46,54,46,34,98,85,57,30.14,29.77,7,0,8,0.32
2013-4-1,71,56,44,51,43,29,100,66,32,30.00,29.77,14,1,14,0.00
2013-4-2,58,47,34,29,22,14,77,40,20,30.19,30.00,12,1,12,0.00
2013-4-3,59,45,30,29,21,14,80,43,19,30.39,30.19,11,1,11,0.00
2013-4-4,51,41,33,39,25,16,96,56,29,30.44,30.03,6,0,6,0.43
2013-4-5,66,50,38,46,38,32,97,70,29,30.07,29.87,9,1,9,0.20
2013-4-6,61,50,42,38,28,20,69,45,23,30.34,30.05,7,0,8,0.00
2013-4-7,73,55,35,44,38,32,89,57,31,30.32,30.07,9,1,13,0.00
2013-4-8,81,66,51,54,49,43,86,56,34,30.13,30.00,11,1,11,0.00
2013-4-9,87,74,60,58,54,51,84,54,31,30.14,30.00,10,1,11,0.00
2013-4-10,91,77,63,62,58,55,79,53,31,30.05,29.87,11,1,11,0.00
2013-4-11,86,75,66,62,59,57,79,59,39,29.93,29.78,13,1,13,0.00
2013-4-12,84,74,66,69,65,60,96,75,47,29.79,29.57,13,1,13,0.26
2013-4-13,73,66,50,47,42,38,86,43,29,29.97,29.72,9,1,10,0.00
2013-4-14,79,63,46,49,43,33,92,53,23,30.12,29.97,7,0,7,0.00
2013-4-15,69,59,54,58,53,40,97,82,46,30.28,30.09,5,0,6,0.11
2013-4-16,78,65,55,62,58,54,97,79,52,30.33,30.19,9,0,9,0.00
2013-4-17,83,71,60,65,61,59,95,74,49,30.22,30.12,7,0,7,0.00
2013-4-18,80,70,63,66,61,57,94,73,47,30.22,30.04,13,0,13,0.00
2013-4-19,81,70,64,68,64,60,96,82,60,30.05,29.68,19,1,19,0.78
2013-4-20,65,56,49,63,42,29,95,61,29,30.31,29.75,8,0,8,0.07
2013-4-21,60,51,44,43,34,28,80,52,35,30.58,30.31,10,0,10,0.00
2013-4-22,61,49,37,45,39,34,91,72,48,30.57,30.36,9,0,9,0.00
2013-4-23,63,53,48,50,46,43,89,78,55,30.37,30.15,9,0,9,0.00
2013-4-24,78,63,46,58,52,45,97,71,42,30.16,29.92,14,1,14,0.00
2013-4-25,67,60,50,57,42,31,82,54,29,30.31,29.98,10,0,10,0.00
2013-4-26,71,57,43,47,42,34,95,61,27,30.47,30.30,6,0,6,0.00
2013-4-27,73,61,50,49,44,40,83,57,33,30.43,30.30,6,0,6,0.00
2013-4-28,64,57,50,54,47,39,93,69,43,30.32,30.15,5,0,5,0.01
2013-4-29,64,58,55,62,57,53,99,96,88,30.16,30.01,3,0,3,0.74
2013-4-30,66,59,56,60,57,55,99,93,80,30.25,30.07,10,0,10,0.00
2013-5-1,68,60,55,56,52,45,97,75,50,30.40,30.24,7,0,9,0.00
2013-5-2,68,59,54,55,52,46,92,78,52,30.43,30.32,7,0,7,0.00
2013-5-3,71,57,48,56,47,36,98,73,33,30.35,30.28,8,0,8,0.00
2013-5-4,65,54,46,53,47,43,91,79,57,30.31,30.17,7,0,7,0.00
2013-5-5,64,55,46,53,48,41,88,79,64,30.20,30.13,9,0,9,0.00
2013-5-6,69,60,55,63,57,52,98,91,71,30.14,29.95,8,0,8,0.16
2013-5-7,75,64,59,66,60,53,100,87,51,29.98,29.86,9,0,9,0.23
2013-5-8,66,60,56,60,57,55,99,93,71,30.03,29.94,6,0,6,0.04
2013-5-9,78,63,52,64,58,52,100,84,47,30.05,29.98,8,0,8,0.05
2013-5-10,85,72,58,67,61,57,98,72,41,30.06,29.92,10,0,10,0.00
2013-5-11,80,72,62,66,64,61,97,77,54,29.95,29.77,10,0,10,0.26
2013-5-12,71,64,52,62,51,36,99,68,30,30.07,29.77,10,0,10,0.03
2013-5-13,64,53,44,46,38,30,95,61,31,30.20,30.06,10,0,10,0.00
2013-5-14,70,56,41,46,39,33,92,57,30,30.27,30.08,7,0,7,0.00
2013-5-15,88,72,55,64,55,42,74,56,42,30.10,29.80,10,1,10,0.00
2013-5-16,87,74,64,67,62,57,97,70,41,29.97,29.84,9,0,9,0.11
2013-5-17,84,72,63,68,62,53,98,73,43,30.16,29.95,6,0,6,0.01
2013-5-18,67,64,60,67,63,56,100,97,75,30.22,30.14,5,0,5,1.07
2013-5-19,75,67,64,71,66,64,100,97,84,30.21,30.10,6,0,6,0.27
2013-5-20,81,71,65,74,68,65,100,92,68,30.14,30.03,7,0,7,0.02
2013-5-21,80,73,68,74,70,67,98,90,73,30.05,29.93,5,0,5,0.01
2013-5-22,85,76,70,75,70,68,96,83,65,30.01,29.89,7,1,11,0.02
2013-5-23,81,73,69,74,69,64,95,87,69,29.97,29.80,7,0,7,0.03
2013-5-24,70,62,51,64,54,40,94,77,50,30.19,29.80,11,0,11,0.03
2013-5-25,69,56,42,47,40,35,83,57,35,30.27,30.13,9,0,9,0.00
2013-5-26,74,61,47,50,44,36,91,57,27,30.29,30.17,6,0,7,0.00
2013-5-27,77,64,50,60,54,48,96,71,46,30.31,30.19,6,0,6,0.00
2013-5-28,86,73,61,71,63,54,87,71,54,30.24,30.11,8,1,8,0.00
2013-5-29,88,78,68,72,66,63,86,69,49,30.20,30.13,8,1,8,0.00
2013-5-30,90,78,67,71,67,63,90,70,46,30.25,30.17,7,0,7,0.00
2013-5-31,89,78,67,73,67,64,95,72,46,30.22,30.09,7,0,7,0.00
2013-6-1,90,79,70,72,68,65,91,70,48,30.12,29.99,9,1,9,0.00
2013-6-2,88,76,68,73,68,66,99,78,56,30.01,29.89,9,1,9,0.71
2013-6-3,82,73,68,74,70,68,100,92,67,29.97,29.83,6,0,6,0.13
2013-6-4,79,69,60,68,57,48,99,70,36,30.16,29.97,8,0,8,0.00
2013-6-5,82,70,59,64,58,53,92,69,45,30.19,30.08,5,0,5,0.00
2013-6-6,78,69,60,69,64,54,94,82,65,30.11,29.85,5,0,5,0.00
2013-6-7,74,70,69,73,70,68,100,99,95,29.85,29.56,5,0,5,1.59
2013-6-8,80,71,68,71,68,66,100,92,67,30.12,29.79,5,0,5,0.38
2013-6-9,86,74,64,77,70,64,100,88,66,30.19,30.08,5,0,5,0.00
2013-6-10,81,74,71,76,72,70,99,93,79,30.11,29.86,10,0,10,0.84
2013-6-11,84,76,70,72,69,66,98,82,59,29.93,29.84,8,0,8,0.01
2013-6-12,89,78,67,76,70,65,95,79,54,29.94,29.83,5,0,5,0.00
2013-6-13,90,80,74,77,74,65,97,82,53,29.84,29.54,21,1,21,0.05
2013-6-14,77,70,62,65,60,55,94,70,49,30.02,29.67,10,0,10,0.00
2013-6-15,83,72,60,65,62,58,95,73,45,30.13,30.02,6,0,6,0.00
2013-6-16,87,76,67,73,67,62,88,74,55,30.07,29.96,5,1,7,0.00
2013-6-17,83,75,69,75,72,68,99,88,70,30.03,29.92,6,0,6,0.18
2013-6-18,78,72,66,76,71,66,100,97,88,29.97,29.79,7,0,8,0.23
2013-6-19,75,69,64,69,67,64,100,92,76,30.17,29.90,5,0,5,0.04
2013-6-20,80,70,63,68,63,56,99,78,55,30.30,30.17,5,0,5,0.01
2013-6-21,82,68,58,70,62,55,96,82,45,30.32,30.24,4,0,5,0.01
2013-6-22,84,72,66,75,69,65,100,91,66,30.28,30.19,5,0,6,0.15
2013-6-23,84,74,70,76,72,70,100,94,71,30.22,30.13,4,0,6,0.41
2013-6-24,88,79,72,78,74,71,99,85,59,30.18,30.07,6,0,6,0.01
2013-6-25,89,81,73,76,74,71,95,80,58,30.09,29.96,1,0,6,0.00
2013-6-26,90,78,70,79,73,69,99,84,60,29.99,29.85,10,1,10,0.30
2013-6-27,84,75,68,76,72,68,99,89,68,29.90,29.70,8,0,8,0.01
2013-6-28,89,79,73,78,73,69,96,82,61,29.72,29.54,8,1,8,0.01
2013-6-29,86,78,70,76,72,68,100,83,57,29.74,29.58,1,0,7,0.23
2013-6-30,86,78,71,79,74,69,99,89,68,29.91,29.74,6,0,6,0.56
2013-7-1,82,74,70,77,74,70,100,98,82,30.03,29.88,6,0,6,0.79
2013-7-2,78,74,72,76,74,72,100,99,89,30.23,30.02,6,0,6,0.35
2013-7-3,86,76,72,79,75,72,100,96,72,30.28,30.19,6,0,6,0.14
2013-7-4,88,79,73,79,74,72,100,86,64,30.31,30.20,7,0,7,0.00
2013-7-5,87,79,72,77,74,71,98,85,67,30.30,30.18,1,0,9,0.00
2013-7-6,88,80,74,77,74,70,98,82,59,30.26,30.14,8,0,8,0.00
2013-7-7,88,80,74,78,74,72,93,82,66,30.17,30.05,9,1,9,0.00
2013-7-8,85,77,72,76,73,71,99,87,65,30.17,30.09,6,0,6,0.08
2013-7-9,87,79,74,79,75,72,97,88,71,30.15,30.05,6,0,6,0.00
2013-7-10,88,77,72,80,74,71,100,91,71,30.08,29.94,7,0,7,0.78
2013-7-11,80,75,71,77,74,71,100,96,85,29.99,29.91,3,0,4,0.21
2013-7-12,76,72,68,73,71,67,100,96,89,30.07,29.90,5,0,5,0.54
2013-7-13,82,75,69,78,73,68,100,94,85,30.27,30.06,3,0,3,0.01
2013-7-14,88,79,72,78,75,72,100,88,63,30.36,30.27,4,0,4,0.01
2013-7-15,91,80,72,79,75,72,100,86,60,30.35,30.24,5,0,5,0.00
2013-7-16,93,81,72,83,76,71,100,86,58,30.26,30.18,7,0,7,0.61
2013-7-17,91,80,73,82,76,73,100,89,61,30.24,30.12,4,0,4,0.00
2013-7-18,91,83,75,81,77,74,99,84,60,30.16,30.04,4,0,4,0.00
2013-7-19,91,84,77,81,78,75,98,82,63,30.07,29.94,10,1,10,0.00
2013-7-20,89,81,76,80,76,74,99,85,68,29.98,29.89,12,1,12,0.06
2013-7-21,88,78,72,80,75,70,100,92,71,29.99,29.90,7,0,7,0.28
2013-7-22,87,77,70,79,74,70,100,91,70,29.97,29.81,6,0,6,0.00
2013-7-23,87,80,75,77,75,72,95,84,64,29.82,29.70,7,0,7,0.00
2013-7-24,86,78,72,77,73,66,96,83,66,29.91,29.71,7,0,7,0.00
2013-7-25,77,72,65,68,65,61,96,79,64,30.07,29.87,9,0,9,0.06
2013-7-26,83,71,61,70,65,60,97,81,53,30.14,30.04,5,0,5,0.00
2013-7-27,84,74,66,74,70,64,100,86,70,30.09,29.95,6,0,6,0.00
2013-7-28,86,76,69,76,71,68,100,87,63,30.01,29.92,5,0,6,0.76
2013-7-29,82,73,66,71,68,61,100,84,56,30.19,29.99,7,0,7,0.01
2013-7-30,83,73,65,71,67,62,99,82,56,30.25,30.17,6,0,6,0.00
2013-7-31,81,71,66,74,69,65,99,93,75,30.18,30.05,5,0,5,0.42
2013-8-1,82,72,69,77,72,68,100,97,77,30.05,29.85,5,0,8,0.32
2013-8-2,86,75,67,75,69,66,100,85,58,30.02,29.90,6,0,6,0.00
2013-8-3,84,76,70,75,70,68,97,85,63,30.01,29.93,7,0,7,0.00
2013-8-4,82,75,67,72,65,57,96,75,45,30.07,29.92,8,0,8,0.00
2013-8-5,80,70,61,66,63,57,97,79,49,30.14,30.05,5,0,5,0.00
2013-8-6,74,69,67,72,67,65,100,95,88,30.10,30.01,2,0,3,0.14
2013-8-7,85,76,70,74,71,69,98,86,66,30.11,30.04,8,0,8,0.01
2013-8-8,86,79,74,77,74,72,95,86,70,30.09,30.01,7,0,7,0.00
2013-8-9,84,78,76,78,75,73,94,91,77,30.03,29.99,8,0,8,0.00
2013-8-12,79,78,78,75,75,75,90,90,89,29.97,29.94,0,0,0,0.00
2013-8-13,86,78,75,77,74,72,95,88,72,29.95,29.77,8,0,8,0.00
2013-8-14,77,68,61,71,60,52,97,75,52,30.14,29.82,10,0,10,0.00
2013-8-15,76,65,57,64,60,55,94,83,55,30.21,30.12,5,0,5,0.01
2013-8-16,76,66,59,65,61,56,99,85,51,30.24,30.15,5,0,5,0.00
2013-8-17,78,69,62,68,64,60,98,86,66,30.26,30.20,5,0,5,0.05
2013-8-18,69,66,65,68,66,64,99,99,97,30.25,30.16,8,0,8,0.25
2013-8-19,72,68,64,71,67,64,100,99,94,30.24,30.11,3,0,3,0.15
2013-8-20,82,72,68,75,70,67,100,94,74,30.21,30.13,3,0,3,0.01
2013-8-21,85,77,69,78,74,69,100,90,73,30.25,30.11,6,0,6,0.00
2013-8-22,87,78,73,75,73,67,97,85,53,30.14,29.99,5,0,5,0.00
2013-8-23,78,71,63,74,69,62,99,95,83,30.15,29.96,7,0,7,0.84
2013-8-24,80,68,60,70,64,59,100,88,61,30.36,30.14,8,0,8,0.01
2013-8-25,78,69,62,69,63,58,100,83,51,30.44,30.32,4,0,4,0.00
2013-8-26,82,69,58,68,62,57,98,80,51,30.36,30.09,6,0,6,0.00
2013-8-27,86,75,65,77,70,61,100,85,62,30.09,29.94,5,0,5,0.15
2013-8-28,77,74,73,75,74,71,100,98,86,29.99,29.84,5,0,5,0.30
2013-8-29,83,74,70,76,73,69,100,96,76,30.05,29.83,1,0,7,0.00
2013-8-30,85,74,66,72,69,66,100,87,57,30.09,29.96,6,0,6,0.00
2013-8-31,86,77,69,77,72,68,98,86,69,29.98,29.85,7,0,7,0.03
2013-9-1,89,76,70,80,73,69,100,89,64,29.90,29.78,8,0,8,0.33
2013-9-2,86,77,72,77,74,72,100,90,64,29.87,29.79,5,0,5,0.01
2013-9-3,84,77,72,74,72,68,99,86,61,29.97,29.78,8,0,8,0.01
2013-9-4,80,72,66,72,64,59,96,77,61,30.13,29.97,4,0,5,0.00
2013-9-5,84,73,64,70,65,59,98,79,43,30.13,30.04,5,0,5,0.00
2013-9-6,77,70,61,64,60,55,87,71,57,30.24,30.12,7,0,7,0.00
2013-9-7,78,68,59,67,62,58,98,85,62,30.17,29.99,1,0,6,0.00
2013-9-8,84,73,64,72,67,63,97,82,57,30.01,29.92,4,0,4,0.00
2013-9-9,78,74,69,72,69,62,96,84,74,30.20,30.03,0,0,4,0.00
2013-9-10,88,78,69,76,72,68,99,84,62,30.23,30.14,7,0,7,0.00
2013-9-11,88,79,71,76,71,67,94,78,56,30.20,30.07,7,0,7,0.00
2013-9-12,88,78,69,76,71,67,95,80,63,30.07,29.78,10,0,10,0.01
2013-9-13,78,72,64,70,63,53,97,76,48,29.95,29.74,9,0,9,0.01
2013-9-14,69,62,56,55,51,48,88,68,50,30.20,29.95,8,0,8,0.00
2013-9-15,76,63,52,60,55,50,96,77,50,30.29,30.14,7,0,7,0.00
2013-9-16,77,66,60,68,61,57,96,85,71,30.25,30.11,7,0,7,0.00
2013-9-17,69,61,54,57,54,46,95,78,47,30.42,30.25,9,0,9,0.00
2013-9-18,70,58,47,56,51,46,97,80,49,30.36,30.22,5,0,5,0.00
2013-9-19,74,63,53,63,57,52,98,82,56,30.24,30.13,5,0,5,0.00
2013-9-20,77,67,59,68,62,57,94,83,63,30.14,30.00,6,0,6,0.00
2013-9-21,73,67,60,69,64,58,98,91,78,30.01,29.74,9,0,9,0.68
2013-9-22,73,65,59,66,60,54,99,85,59,29.96,29.76,8,0,8,0.03
2013-9-23,66,60,53,55,52,48,94,76,59,30.13,29.96,11,0,11,0.00
2013-9-24,70,59,51,60,54,48,97,84,60,30.15,29.99,5,0,5,0.00
2013-9-25,72,62,52,62,57,50,99,85,55,30.01,29.91,5,0,5,0.00
2013-9-26,73,65,58,63,58,55,95,80,54,30.09,29.93,7,0,7,0.00
2013-9-27,70,61,53,62,57,52,99,87,68,30.25,30.09,5,0,5,0.54
2013-9-28,69,61,54,60,57,53,98,86,68,30.31,30.22,8,0,8,0.01
2013-9-29,71,62,53,62,58,52,99,88,65,30.23,30.08,4,0,6,0.00
2013-9-30,73,62,54,60,57,54,99,85,54,30.13,30.02,5,0,5,0.00
2013-10-1,78,65,56,66,60,55,96,85,59,30.12,30.03,4,0,4,0.00
2013-10-2,80,68,59,67,63,58,99,83,51,30.14,30.05,3,0,4,0.00
2013-10-3,81,70,60,70,65,59,98,86,58,30.15,30.07,3,0,3,0.00
2013-10-4,83,71,64,70,66,63,96,85,57,30.13,30.05,5,0,5,0.00
2013-10-5,86,73,65,72,68,65,99,85,54,30.13,30.03,3,0,3,0.01
2013-10-6,84,74,66,70,67,65,97,81,55,30.08,29.96,7,0,7,0.00
2013-10-7,77,70,60,72,68,57,98,92,82,30.08,29.87,10,0,10,0.34
2013-10-8,62,58,55,57,52,49,91,81,71,30.28,30.08,8,0,8,0.00
2013-10-9,58,57,55,57,54,52,98,92,83,30.27,30.15,10,0,10,0.17
2013-10-10,58,56,54,57,56,54,99,99,97,30.15,29.96,12,0,12,0.00
2013-10-11,63,60,58,62,60,57,100,99,97,29.99,29.92,6,0,6,0.00
2013-10-12,66,63,61,66,63,61,100,100,98,30.14,29.96,6,0,6,0.00
2013-10-13,65,63,61,65,63,61,100,100,99,30.30,30.13,8,0,8,0.00
2013-10-14,66,61,56,62,59,55,99,95,82,30.33,30.24,6,0,6,0.00
2013-10-15,69,60,52,64,58,52,100,93,76,30.25,30.10,7,0,7,0.00
2013-10-16,71,65,61,66,63,60,99,93,79,30.11,29.97,4,0,4,0.00
2013-10-17,73,66,62,68,64,61,99,93,79,29.98,29.82,6,0,6,0.02
2013-10-18,67,60,53,65,54,48,95,82,55,30.07,29.86,6,0,6,0.00
2013-10-19,63,58,52,63,57,50,99,97,92,30.03,29.84,6,0,6,0.02
2013-10-20,61,54,46,59,47,40,97,80,48,30.16,29.91,3,0,6,0.00
2013-10-21,65,52,42,51,46,41,99,81,52,30.22,30.03,6,0,6,0.00
2013-10-22,69,58,51,58,53,48,95,84,56,30.03,29.83,4,0,4,0.00
2013-10-23,60,53,47,56,47,42,92,79,59,29.98,29.71,7,0,7,0.01
2013-10-24,53,46,39,42,37,34,89,71,51,30.21,29.98,7,0,7,0.00
2013-10-25,55,44,35,39,34,29,91,71,39,30.38,30.20,6,0,6,0.00
2013-10-26,58,45,34,39,35,30,98,71,38,30.38,30.04,11,1,11,0.00
2013-10-27,64,52,42,47,42,37,93,70,43,30.17,30.04,8,0,8,0.00
2013-10-28,65,52,41,52,46,39,98,82,53,30.30,30.16,4,0,4,0.00
2013-10-29,67,58,53,53,50,48,90,78,53,30.40,30.29,4,0,4,0.00
2013-10-30,66,58,51,61,56,48,98,92,81,30.35,30.19,4,0,4,0.03
2013-10-31,71,63,55,64,59,54,99,87,70,30.23,29.90,8,0,8,0.00
2013-11-1,71,68,65,67,65,61,97,89,82,29.91,29.67,12,1,12,0.03
2013-11-2,70,62,55,64,53,42,99,75,37,29.94,29.68,8,0,8,0.00
2013-11-3,61,50,40,46,39,29,92,68,33,30.44,29.94,13,0,13,0.00
2013-11-4,50,42,37,34,32,27,83,67,43,30.66,30.44,9,0,9,0.00
2013-11-5,57,48,39,48,41,33,87,77,66,30.64,30.49,6,0,6,0.00
2013-11-6,68,57,45,57,51,44,97,82,59,30.50,30.14,7,0,7,0.00
2013-11-7,68,61,52,62,56,37,99,87,57,30.14,29.91,11,0,11,0.04
2013-11-8,56,47,37,37,31,26,87,56,34,30.37,30.11,8,1,8,0.00
2013-11-9,58,44,32,38,32,29,98,67,37,30.42,30.15,10,1,10,0.00
2013-11-10,68,52,43,41,35,28,76,54,23,30.30,30.02,10,1,10,0.00
2013-11-11,57,47,37,35,32,29,81,58,39,30.39,30.13,8,0,8,0.00
2013-11-12,51,44,34,40,28,18,70,55,43,30.46,30.02,13,1,13,0.00
2013-11-13,45,35,28,26,20,17,82,58,35,30.56,30.46,10,0,10,0.00
2013-11-14,60,43,29,29,23,15,84,50,18,30.47,30.32,9,1,9,0.00
2013-11-15,59,46,35,36,29,27,78,55,31,30.35,30.25,11,1,11,0.00
2013-11-16,58,54,50,56,53,47,98,96,88,30.34,30.27,0,0,4,0.24
2013-11-17,68,60,51,63,57,50,100,90,76,30.28,29.85,7,0,7,0.05
2013-11-18,69,63,51,66,48,30,98,63,29,29.98,29.77,12,1,12,0.05
2013-11-19,53,46,40,33,30,27,72,54,42,30.40,29.96,8,1,8,0.00
2013-11-20,50,42,36,37,32,28,88,68,50,30.56,30.39,9,0,9,0.00
2013-11-21,59,47,39,48,41,36,89,80,65,30.57,30.44,4,0,4,0.00
2013-11-22,70,59,47,59,52,43,92,78,64,30.44,30.05,10,1,12,0.00
2013-11-23,61,53,41,58,38,18,94,61,29,30.20,30.05,13,1,13,0.00
2013-11-24,41,31,23,20,9,2,65,40,26,30.59,30.20,11,1,11,0.00
2013-11-25,38,33,22,18,14,10,73,46,33,30.60,30.43,8,0,8,0.00
2013-11-26,61,41,35,61,34,14,100,78,38,30.45,29.60,10,0,10,0.06
2013-11-27,44,40,33,43,38,22,99,93,65,30.14,29.54,9,1,9,0.02
2013-11-28,41,32,26,26,22,17,88,66,44,30.53,30.14,9,1,9,0.00
2013-11-29,46,34,25,28,25,24,95,74,44,30.74,30.50,3,0,8,0.00
2013-11-30,44,34,26,31,27,23,94,78,55,30.74,30.42,6,0,6,0.00
2013-12-1,55,37,25,35,30,24,96,77,44,30.42,30.07,5,0,5,0.00
2013-12-2,58,42,30,38,34,28,98,75,43,30.07,29.89,4,0,4,0.00
2013-12-3,59,46,35,45,40,33,97,79,55,30.05,29.91,6,0,6,0.00
2013-12-4,57,52,47,55,50,43,98,92,85,30.12,30.04,4,0,4,0.01
2013-12-5,64,61,54,63,61,53,99,98,96,30.15,30.02,9,1,9,0.02
2013-12-6,71,60,46,65,58,44,98,92,77,30.14,29.97,11,1,11,0.00
2013-12-7,46,41,36,44,37,29,98,86,70,30.56,30.10,9,1,9,0.16
2013-12-8,36,34,32,33,30,25,97,89,70,30.59,30.33,6,0,6,0.28
2013-12-9,40,36,33,40,36,32,99,98,97,30.34,30.09,5,0,5,0.06
2013-12-10,39,37,31,39,37,29,99,97,91,30.32,30.01,4,0,4,0.04
2013-12-11,45,34,26,30,27,24,96,80,42,30.48,30.30,7,0,7,0.00
2013-12-12,39,32,27,28,24,17,93,73,46,30.47,30.30,6,0,6,0.00
2013-12-13,47,35,26,29,22,16,80,61,35,30.39,30.29,10,1,10,0.00
2013-12-14,45,40,35,43,36,29,99,86,62,30.35,29.78,9,0,9,0.10
2013-12-15,53,43,35,43,36,28,99,78,51,30.05,29.70,10,1,10,0.00
2013-12-16,46,38,31,34,31,28,92,78,57,30.20,30.03,5,0,5,0.00
2013-12-17,54,41,31,43,36,31,98,85,58,30.17,29.94,4,0,8,0.14
2013-12-18,44,37,30,39,31,25,97,80,48,30.29,30.01,8,0,8,0.00
2013-12-19,62,46,30,33,28,25,89,55,28,30.29,30.19,7,1,10,0.00
2013-12-20,65,54,45,54,43,30,85,67,48,30.23,30.09,13,1,13,0.00
2013-12-21,71,61,51,64,55,48,93,81,66,30.14,30.03,15,1,15,0.00
2013-12-22,74,66,61,68,64,60,99,91,80,30.11,29.95,18,2,18,0.09
2013-12-23,66,60,43,65,58,35,99,95,74,30.23,29.98,6,1,9,0.00
2013-12-24,44,38,29,36,27,12,79,64,44,30.51,30.22,11,1,11,0.01
2013-12-25,35,28,22,21,16,12,84,61,43,30.63,30.45,6,0,6,0.00
2013-12-26,49,34,22,30,25,20,93,73,40,30.45,30.27,10,0,10,0.00
2013-12-27,51,36,25,31,26,23,96,72,35,30.51,30.39,3,0,6,0.00
2013-12-28,60,43,30,34,29,26,90,60,29,30.42,30.20,5,0,9,0.00
2013-12-29,54,47,43,54,45,32,100,93,53,30.21,29.66,8,0,8,0.13
2013-12-30,54,44,37,45,39,32,99,84,63,30.20,29.91,7,0,7,0.00
2013-12-31,50,40,31,35,30,24,93,69,36,30.38,30.18,10,1,10,0.01
2014-1-1,49,35,27,34,29,25,96,78,48,30.46,30.18,6,0,6,0.00
2014-1-2,45,37,30,40,34,27,96,89,72,30.18,29.62,4,0,4,0.30